sensor_id;sensor_type;location;lat;lon;timestamp;P1;durP1;ratioP1;P2;durP2;ratioP2
16133;SDS011;8172;45.018;5.972;2022-08-06T00:00:40;2.60;;;2.17;;
16133;SDS011;8172;45.018;5.972;2022-08-06T00:05:48;3.70;;;1.97;;
16133;SDS011;8172;45.018;5.972;2022-08-06T00:10:57;4.80;;;2.13;;
16133;SDS011;8172;45.018;5.972;2022-08-06T00:16:04;2.27;;;2.00;;
16133;SDS011;8172;45.018;5.972;2022-08-06T00:21:13;2.77;;;2.10;;
16133;SDS011;8172;45.018;5.972;2022-08-06T00:26:22;2.70;;;2.50;;
16133;SDS011;8172;45.018;5.972;2022-08-06T00:31:31;7.47;;;2.40;;
16133;SDS011;8172;45.018;5.972;2022-08-06T00:36:39;2.50;;;2.30;;
16133;SDS011;8172;45.018;5.972;2022-08-06T00:41:47;3.33;;;2.00;;
16133;SDS011;8172;45.018;5.972;2022-08-06T00:46:55;2.50;;;2.30;;
16133;SDS011;8172;45.018;5.972;2022-08-06T00:52:03;2.97;;;1.97;;
16133;SDS011;8172;45.018;5.972;2022-08-06T00:57:11;2.60;;;2.40;;
16133;SDS011;8172;45.018;5.972;2022-08-06T01:02:19;2.20;;;2.00;;
16133;SDS011;8172;45.018;5.972;2022-08-06T01:07:27;4.00;;;2.30;;
16133;SDS011;8172;45.018;5.972;2022-08-06T01:12:36;2.17;;;1.97;;
16133;SDS011;8172;45.018;5.972;2022-08-06T01:28:10;3.27;;;2.27;;
16133;SDS011;8172;45.018;5.972;2022-08-06T01:33:17;3.00;;;1.93;;
16133;SDS011;8172;45.018;5.972;2022-08-06T01:43:33;2.30;;;2.10;;
16133;SDS011;8172;45.018;5.972;2022-08-06T01:48:42;2.30;;;1.90;;
16133;SDS011;8172;45.018;5.972;2022-08-06T01:53:49;2.80;;;2.10;;
16133;SDS011;8172;45.018;5.972;2022-08-06T01:59:00;4.00;;;1.73;;
16133;SDS011;8172;45.018;5.972;2022-08-06T02:04:11;2.37;;;1.90;;
16133;SDS011;8172;45.018;5.972;2022-08-06T02:09:22;2.07;;;1.87;;
16133;SDS011;8172;45.018;5.972;2022-08-06T02:14:32;4.20;;;1.87;;
16133;SDS011;8172;45.018;5.972;2022-08-06T02:19:44;2.27;;;1.80;;
16133;SDS011;8172;45.018;5.972;2022-08-06T02:24:55;2.90;;;1.73;;
16133;SDS011;8172;45.018;5.972;2022-08-06T02:30:06;1.87;;;1.70;;
16133;SDS011;8172;45.018;5.972;2022-08-06T02:35:13;3.47;;;1.97;;
16133;SDS011;8172;45.018;5.972;2022-08-06T02:40:23;3.03;;;1.93;;
16133;SDS011;8172;45.018;5.972;2022-08-06T02:45:36;5.37;;;2.20;;
16133;SDS011;8172;45.018;5.972;2022-08-06T02:50:45;2.23;;;1.97;;
16133;SDS011;8172;45.018;5.972;2022-08-06T02:55:56;3.07;;;2.00;;
16133;SDS011;8172;45.018;5.972;2022-08-06T03:01:10;3.93;;;1.93;;
16133;SDS011;8172;45.018;5.972;2022-08-06T03:06:15;3.10;;;2.00;;
16133;SDS011;8172;45.018;5.972;2022-08-06T03:11:28;2.40;;;2.20;;
16133;SDS011;8172;45.018;5.972;2022-08-06T03:16:38;4.23;;;2.33;;
16133;SDS011;8172;45.018;5.972;2022-08-06T03:21:47;2.50;;;2.30;;
16133;SDS011;8172;45.018;5.972;2022-08-06T03:26:58;3.23;;;2.17;;
16133;SDS011;8172;45.018;5.972;2022-08-06T03:32:06;4.57;;;2.30;;
16133;SDS011;8172;45.018;5.972;2022-08-06T03:37:17;3.23;;;2.33;;
16133;SDS011;8172;45.018;5.972;2022-08-06T03:42:27;2.30;;;2.10;;
16133;SDS011;8172;45.018;5.972;2022-08-06T03:47:37;3.97;;;2.30;;
16133;SDS011;8172;45.018;5.972;2022-08-06T03:52:52;4.13;;;2.30;;
16133;SDS011;8172;45.018;5.972;2022-08-06T03:57:57;4.33;;;2.50;;
16133;SDS011;8172;45.018;5.972;2022-08-06T04:03:07;2.60;;;2.40;;
16133;SDS011;8172;45.018;5.972;2022-08-06T04:08:15;2.63;;;2.43;;
16133;SDS011;8172;45.018;5.972;2022-08-06T04:13:24;3.40;;;2.40;;
16133;SDS011;8172;45.018;5.972;2022-08-06T04:18:35;3.97;;;2.30;;
16133;SDS011;8172;45.018;5.972;2022-08-06T04:23:45;4.00;;;2.47;;
16133;SDS011;8172;45.018;5.972;2022-08-06T04:28:53;2.63;;;2.20;;
16133;SDS011;8172;45.018;5.972;2022-08-06T04:34:02;2.40;;;2.20;;
16133;SDS011;8172;45.018;5.972;2022-08-06T04:39:12;3.27;;;2.33;;
16133;SDS011;8172;45.018;5.972;2022-08-06T04:44:22;2.63;;;2.30;;
16133;SDS011;8172;45.018;5.972;2022-08-06T04:49:30;3.47;;;2.40;;
16133;SDS011;8172;45.018;5.972;2022-08-06T04:54:40;2.80;;;2.60;;
16133;SDS011;8172;45.018;5.972;2022-08-06T04:59:49;3.17;;;2.40;;
16133;SDS011;8172;45.018;5.972;2022-08-06T05:04:55;3.50;;;2.90;;
16133;SDS011;8172;45.018;5.972;2022-08-06T05:10:05;3.10;;;2.77;;
16133;SDS011;8172;45.018;5.972;2022-08-06T05:20:26;2.63;;;2.37;;
16133;SDS011;8172;45.018;5.972;2022-08-06T05:25:36;2.77;;;2.57;;
16133;SDS011;8172;45.018;5.972;2022-08-06T05:30:47;3.63;;;2.70;;
16133;SDS011;8172;45.018;5.972;2022-08-06T05:35:55;3.67;;;2.30;;
16133;SDS011;8172;45.018;5.972;2022-08-06T05:41:07;2.60;;;2.40;;
16133;SDS011;8172;45.018;5.972;2022-08-06T05:46:17;2.43;;;2.23;;
16133;SDS011;8172;45.018;5.972;2022-08-06T05:51:29;2.40;;;2.20;;
16133;SDS011;8172;45.018;5.972;2022-08-06T05:56:39;2.60;;;2.30;;
16133;SDS011;8172;45.018;5.972;2022-08-06T06:01:47;2.70;;;2.50;;
16133;SDS011;8172;45.018;5.972;2022-08-06T06:06:55;2.63;;;2.33;;
16133;SDS011;8172;45.018;5.972;2022-08-06T06:12:04;3.40;;;2.67;;
16133;SDS011;8172;45.018;5.972;2022-08-06T06:22:27;2.83;;;2.63;;
16133;SDS011;8172;45.018;5.972;2022-08-06T06:48:14;3.83;;;2.60;;
16133;SDS011;8172;45.018;5.972;2022-08-06T06:53:22;2.60;;;2.40;;
16133;SDS011;8172;45.018;5.972;2022-08-06T07:03:45;2.90;;;2.57;;
16133;SDS011;8172;45.018;5.972;2022-08-06T07:08:54;2.47;;;2.27;;
16133;SDS011;8172;45.018;5.972;2022-08-06T07:14:05;3.67;;;2.40;;
16133;SDS011;8172;45.018;5.972;2022-08-06T07:19:13;3.93;;;2.50;;
16133;SDS011;8172;45.018;5.972;2022-08-06T07:24:23;2.60;;;2.40;;
16133;SDS011;8172;45.018;5.972;2022-08-06T07:29:34;3.67;;;2.47;;
16133;SDS011;8172;45.018;5.972;2022-08-06T07:34:45;5.17;;;2.50;;
16133;SDS011;8172;45.018;5.972;2022-08-06T07:39:54;2.70;;;2.50;;
16133;SDS011;8172;45.018;5.972;2022-08-06T07:45:04;2.73;;;2.53;;
16133;SDS011;8172;45.018;5.972;2022-08-06T07:50:15;4.87;;;3.03;;
16133;SDS011;8172;45.018;5.972;2022-08-06T07:55:26;4.30;;;3.70;;
16133;SDS011;8172;45.018;5.972;2022-08-06T08:00:36;4.63;;;4.23;;
16133;SDS011;8172;45.018;5.972;2022-08-06T08:05:46;5.17;;;4.20;;
16133;SDS011;8172;45.018;5.972;2022-08-06T08:10:57;4.23;;;3.67;;
16133;SDS011;8172;45.018;5.972;2022-08-06T08:16:06;3.73;;;2.90;;
16133;SDS011;8172;45.018;5.972;2022-08-06T08:21:18;3.40;;;3.10;;
16133;SDS011;8172;45.018;5.972;2022-08-06T08:26:27;5.30;;;4.43;;
16133;SDS011;8172;45.018;5.972;2022-08-06T08:31:37;5.07;;;4.57;;
16133;SDS011;8172;45.018;5.972;2022-08-06T08:36:55;5.30;;;4.80;;
16133;SDS011;8172;45.018;5.972;2022-08-06T08:42:11;5.27;;;4.40;;
16133;SDS011;8172;45.018;5.972;2022-08-06T08:47:22;5.80;;;5.30;;
16133;SDS011;8172;45.018;5.972;2022-08-06T08:52:35;5.13;;;4.63;;
16133;SDS011;8172;45.018;5.972;2022-08-06T08:57:48;5.30;;;4.80;;
16133;SDS011;8172;45.018;5.972;2022-08-06T09:03:02;7.37;;;4.90;;
16133;SDS011;8172;45.018;5.972;2022-08-06T09:08:28;5.57;;;4.80;;
16133;SDS011;8172;45.018;5.972;2022-08-06T09:13:56;5.47;;;4.97;;
16133;SDS011;8172;45.018;5.972;2022-08-06T09:19:10;5.30;;;4.80;;
16133;SDS011;8172;45.018;5.972;2022-08-06T09:24:23;5.73;;;5.23;;
16133;SDS011;8172;45.018;5.972;2022-08-06T09:29:34;6.67;;;5.87;;
16133;SDS011;8172;45.018;5.972;2022-08-06T09:34:48;5.70;;;5.10;;
16133;SDS011;8172;45.018;5.972;2022-08-06T09:39:58;6.63;;;5.30;;
16133;SDS011;8172;45.018;5.972;2022-08-06T09:45:12;7.23;;;5.33;;
16133;SDS011;8172;45.018;5.972;2022-08-06T09:50:41;5.67;;;5.17;;
16133;SDS011;8172;45.018;5.972;2022-08-06T09:55:38;6.00;;;5.40;;
16133;SDS011;8172;45.018;5.972;2022-08-06T10:06:13;6.13;;;5.43;;
16133;SDS011;8172;45.018;5.972;2022-08-06T10:11:34;6.27;;;5.67;;
16133;SDS011;8172;45.018;5.972;2022-08-06T10:16:59;5.83;;;5.23;;
16133;SDS011;8172;45.018;5.972;2022-08-06T10:22:02;5.43;;;4.93;;
16133;SDS011;8172;45.018;5.972;2022-08-06T10:27:07;6.33;;;5.40;;
16133;SDS011;8172;45.018;5.972;2022-08-06T10:32:29;5.70;;;5.10;;
16133;SDS011;8172;45.018;5.972;2022-08-06T10:37:33;5.80;;;5.23;;
16133;SDS011;8172;45.018;5.972;2022-08-06T10:42:44;7.83;;;5.33;;
16133;SDS011;8172;45.018;5.972;2022-08-06T10:47:54;5.57;;;5.07;;
16133;SDS011;8172;45.018;5.972;2022-08-06T10:53:07;6.20;;;5.63;;
16133;SDS011;8172;45.018;5.972;2022-08-06T10:58:18;5.83;;;5.33;;
16133;SDS011;8172;45.018;5.972;2022-08-06T11:19:17;5.70;;;5.10;;
16133;SDS011;8172;45.018;5.972;2022-08-06T11:24:28;5.50;;;5.00;;
16133;SDS011;8172;45.018;5.972;2022-08-06T11:30:06;7.33;;;5.10;;
16133;SDS011;8172;45.018;5.972;2022-08-06T11:34:53;5.63;;;5.13;;
16133;SDS011;8172;45.018;5.972;2022-08-06T11:40:06;5.57;;;5.07;;
16133;SDS011;8172;45.018;5.972;2022-08-06T11:45:16;7.13;;;4.90;;
16133;SDS011;8172;45.018;5.972;2022-08-06T11:50:30;5.37;;;4.87;;
16133;SDS011;8172;45.018;5.972;2022-08-06T11:56:02;5.60;;;4.77;;
16133;SDS011;8172;45.018;5.972;2022-08-06T12:00:54;5.53;;;4.97;;
16133;SDS011;8172;45.018;5.972;2022-08-06T12:06:18;5.60;;;5.00;;
16133;SDS011;8172;45.018;5.972;2022-08-06T12:11:28;5.43;;;4.93;;
16133;SDS011;8172;45.018;5.972;2022-08-06T12:16:39;8.23;;;5.43;;
16133;SDS011;8172;45.018;5.972;2022-08-06T12:21:51;6.97;;;5.30;;
16133;SDS011;8172;45.018;5.972;2022-08-06T12:27:05;6.27;;;4.83;;
16133;SDS011;8172;45.018;5.972;2022-08-06T12:37:34;4.63;;;4.20;;
16133;SDS011;8172;45.018;5.972;2022-08-06T12:42:42;5.37;;;4.27;;
16133;SDS011;8172;45.018;5.972;2022-08-06T12:48:04;4.00;;;3.60;;
16133;SDS011;8172;45.018;5.972;2022-08-06T12:53:17;4.40;;;4.00;;
16133;SDS011;8172;45.018;5.972;2022-08-06T12:58:38;4.77;;;3.63;;
16133;SDS011;8172;45.018;5.972;2022-08-06T13:04:00;3.80;;;3.50;;
16133;SDS011;8172;45.018;5.972;2022-08-06T13:09:28;5.95;;;4.40;;
16133;SDS011;8172;45.018;5.972;2022-08-06T13:14:49;3.50;;;3.20;;
16133;SDS011;8172;45.018;5.972;2022-08-06T13:20:00;4.22;;;3.83;;
16133;SDS011;8172;45.018;5.972;2022-08-06T13:25:16;4.05;;;3.40;;
16133;SDS011;8172;45.018;5.972;2022-08-06T13:30:42;5.97;;;4.17;;
16133;SDS011;8172;45.018;5.972;2022-08-06T13:41:07;4.83;;;3.27;;
16133;SDS011;8172;45.018;5.972;2022-08-06T13:46:24;4.20;;;3.80;;
16133;SDS011;8172;45.018;5.972;2022-08-06T13:51:54;5.20;;;4.07;;
16133;SDS011;8172;45.018;5.972;2022-08-06T13:57:05;4.60;;;4.10;;
16133;SDS011;8172;45.018;5.972;2022-08-06T14:02:18;4.55;;;4.15;;
16133;SDS011;8172;45.018;5.972;2022-08-06T14:07:27;5.78;;;3.67;;
16133;SDS011;8172;45.018;5.972;2022-08-06T14:12:39;4.87;;;3.70;;
16133;SDS011;8172;45.018;5.972;2022-08-06T14:18:00;4.03;;;3.10;;
16133;SDS011;8172;45.018;5.972;2022-08-06T14:23:11;4.92;;;3.42;;
16133;SDS011;8172;45.018;5.972;2022-08-06T14:28:37;5.30;;;2.77;;
16133;SDS011;8172;45.018;5.972;2022-08-06T14:33:48;2.80;;;2.40;;
16133;SDS011;8172;45.018;5.972;2022-08-06T14:39:04;3.77;;;3.17;;
16133;SDS011;8172;45.018;5.972;2022-08-06T14:44:19;4.42;;;3.58;;
16133;SDS011;8172;45.018;5.972;2022-08-06T14:49:30;5.72;;;3.62;;
16133;SDS011;8172;45.018;5.972;2022-08-06T14:54:49;3.98;;;3.60;;
16133;SDS011;8172;45.018;5.972;2022-08-06T15:00:00;3.37;;;3.08;;
16133;SDS011;8172;45.018;5.972;2022-08-06T15:05:18;5.42;;;3.50;;
16133;SDS011;8172;45.018;5.972;2022-08-06T15:10:29;4.05;;;3.52;;
16133;SDS011;8172;45.018;5.972;2022-08-06T15:15:43;3.90;;;3.50;;
16133;SDS011;8172;45.018;5.972;2022-08-06T15:20:57;3.70;;;3.10;;
16133;SDS011;8172;45.018;5.972;2022-08-06T15:26:16;3.75;;;3.45;;
16133;SDS011;8172;45.018;5.972;2022-08-06T15:31:46;4.53;;;3.72;;
16133;SDS011;8172;45.018;5.972;2022-08-06T15:36:55;5.25;;;3.75;;
16133;SDS011;8172;45.018;5.972;2022-08-06T15:42:04;3.80;;;3.50;;
16133;SDS011;8172;45.018;5.972;2022-08-06T15:47:15;6.03;;;3.52;;
16133;SDS011;8172;45.018;5.972;2022-08-06T15:52:25;4.65;;;3.20;;
16133;SDS011;8172;45.018;5.972;2022-08-06T15:57:38;5.50;;;3.22;;
16133;SDS011;8172;45.018;5.972;2022-08-06T16:02:52;6.22;;;3.60;;
16133;SDS011;8172;45.018;5.972;2022-08-06T16:08:05;4.28;;;3.72;;
16133;SDS011;8172;45.018;5.972;2022-08-06T16:13:18;5.03;;;3.67;;
16133;SDS011;8172;45.018;5.972;2022-08-06T16:18:27;4.67;;;3.47;;
16133;SDS011;8172;45.018;5.972;2022-08-06T16:23:42;5.92;;;3.37;;
16133;SDS011;8172;45.018;5.972;2022-08-06T16:28:53;4.65;;;3.65;;
16133;SDS011;8172;45.018;5.972;2022-08-06T16:34:02;4.20;;;3.80;;
16133;SDS011;8172;45.018;5.972;2022-08-06T16:45:27;4.60;;;3.70;;
16133;SDS011;8172;45.018;5.972;2022-08-06T16:51:44;5.30;;;3.90;;
16133;SDS011;8172;45.018;5.972;2022-08-06T16:57:17;6.53;;;4.05;;
16133;SDS011;8172;45.018;5.972;2022-08-06T17:02:27;4.20;;;3.77;;
16133;SDS011;8172;45.018;5.972;2022-08-06T17:07:40;5.33;;;3.60;;
16133;SDS011;8172;45.018;5.972;2022-08-06T17:12:53;5.13;;;4.00;;
16133;SDS011;8172;45.018;5.972;2022-08-06T17:18:06;6.77;;;4.77;;
16133;SDS011;8172;45.018;5.972;2022-08-06T17:23:16;4.43;;;4.03;;
16133;SDS011;8172;45.018;5.972;2022-08-06T17:28:28;5.17;;;3.93;;
16133;SDS011;8172;45.018;5.972;2022-08-06T17:33:36;4.60;;;4.10;;
16133;SDS011;8172;45.018;5.972;2022-08-06T17:38:46;5.73;;;4.07;;
16133;SDS011;8172;45.018;5.972;2022-08-06T17:43:57;4.40;;;4.00;;
16133;SDS011;8172;45.018;5.972;2022-08-06T17:49:10;3.87;;;3.53;;
16133;SDS011;8172;45.018;5.972;2022-08-06T17:54:24;4.57;;;3.93;;
16133;SDS011;8172;45.018;5.972;2022-08-06T17:59:34;5.73;;;4.10;;
16133;SDS011;8172;45.018;5.972;2022-08-06T18:04:43;5.57;;;4.07;;
16133;SDS011;8172;45.018;5.972;2022-08-06T18:09:54;4.73;;;4.20;;
16133;SDS011;8172;45.018;5.972;2022-08-06T18:15:06;4.70;;;4.30;;
16133;SDS011;8172;45.018;5.972;2022-08-06T18:20:20;6.73;;;3.77;;
16133;SDS011;8172;45.018;5.972;2022-08-06T18:25:31;5.43;;;4.30;;
16133;SDS011;8172;45.018;5.972;2022-08-06T18:30:41;4.37;;;3.90;;
16133;SDS011;8172;45.018;5.972;2022-08-06T18:35:52;5.10;;;3.90;;
16133;SDS011;8172;45.018;5.972;2022-08-06T18:41:03;4.50;;;4.03;;
16133;SDS011;8172;45.018;5.972;2022-08-06T18:46:15;4.77;;;4.10;;
16133;SDS011;8172;45.018;5.972;2022-08-06T18:51:26;4.40;;;4.00;;
16133;SDS011;8172;45.018;5.972;2022-08-06T18:56:37;4.40;;;4.00;;
16133;SDS011;8172;45.018;5.972;2022-08-06T19:01:48;6.47;;;3.83;;
16133;SDS011;8172;45.018;5.972;2022-08-06T19:07:02;6.27;;;4.30;;
16133;SDS011;8172;45.018;5.972;2022-08-06T19:12:18;4.83;;;4.40;;
16133;SDS011;8172;45.018;5.972;2022-08-06T19:17:30;7.50;;;4.00;;
16133;SDS011;8172;45.018;5.972;2022-08-06T19:22:40;4.60;;;4.13;;
16133;SDS011;8172;45.018;5.972;2022-08-06T19:27:50;4.57;;;4.10;;
16133;SDS011;8172;45.018;5.972;2022-08-06T19:33:00;4.70;;;4.00;;
16133;SDS011;8172;45.018;5.972;2022-08-06T19:38:11;6.03;;;4.33;;
16133;SDS011;8172;45.018;5.972;2022-08-06T19:43:25;8.73;;;4.37;;
16133;SDS011;8172;45.018;5.972;2022-08-06T19:48:38;5.00;;;4.43;;
16133;SDS011;8172;45.018;5.972;2022-08-06T19:54:05;4.80;;;4.30;;
16133;SDS011;8172;45.018;5.972;2022-08-06T20:00:00;4.50;;;4.00;;
16133;SDS011;8172;45.018;5.972;2022-08-06T20:05:15;4.90;;;4.20;;
16133;SDS011;8172;45.018;5.972;2022-08-06T20:10:31;4.47;;;4.07;;
16133;SDS011;8172;45.018;5.972;2022-08-06T20:15:59;5.77;;;4.37;;
16133;SDS011;8172;45.018;5.972;2022-08-06T20:21:36;5.07;;;4.30;;
16133;SDS011;8172;45.018;5.972;2022-08-06T20:27:20;6.23;;;4.80;;
16133;SDS011;8172;45.018;5.972;2022-08-06T20:32:45;7.33;;;4.50;;
16133;SDS011;8172;45.018;5.972;2022-08-06T20:38:30;4.90;;;4.40;;
16133;SDS011;8172;45.018;5.972;2022-08-06T20:43:40;5.33;;;4.50;;
16133;SDS011;8172;45.018;5.972;2022-08-06T20:48:50;4.83;;;4.30;;
16133;SDS011;8172;45.018;5.972;2022-08-06T20:54:04;5.40;;;4.70;;
16133;SDS011;8172;45.018;5.972;2022-08-06T20:59:14;4.77;;;4.10;;
16133;SDS011;8172;45.018;5.972;2022-08-06T21:04:30;5.73;;;4.67;;
16133;SDS011;8172;45.018;5.972;2022-08-06T21:09:41;5.70;;;4.57;;
16133;SDS011;8172;45.018;5.972;2022-08-06T21:14:52;4.83;;;4.30;;
16133;SDS011;8172;45.018;5.972;2022-08-06T21:20:02;5.47;;;4.80;;
16133;SDS011;8172;45.018;5.972;2022-08-06T21:25:14;6.13;;;4.83;;
16133;SDS011;8172;45.018;5.972;2022-08-06T21:30:29;7.00;;;4.57;;
16133;SDS011;8172;45.018;5.972;2022-08-06T21:35:42;5.20;;;4.70;;
16133;SDS011;8172;45.018;5.972;2022-08-06T21:40:55;5.23;;;4.40;;
16133;SDS011;8172;45.018;5.972;2022-08-06T21:46:10;5.87;;;4.60;;
16133;SDS011;8172;45.018;5.972;2022-08-06T21:51:24;5.10;;;4.60;;
16133;SDS011;8172;45.018;5.972;2022-08-06T21:56:39;5.00;;;4.50;;
16133;SDS011;8172;45.018;5.972;2022-08-06T22:01:53;6.60;;;4.70;;
16133;SDS011;8172;45.018;5.972;2022-08-06T22:07:03;5.73;;;4.40;;
16133;SDS011;8172;45.018;5.972;2022-08-06T22:12:12;4.93;;;4.40;;
16133;SDS011;8172;45.018;5.972;2022-08-06T22:17:23;5.27;;;4.57;;
16133;SDS011;8172;45.018;5.972;2022-08-06T22:22:34;5.70;;;4.40;;
16133;SDS011;8172;45.018;5.972;2022-08-06T22:27:45;7.37;;;4.90;;
16133;SDS011;8172;45.018;5.972;2022-08-06T22:32:57;5.40;;;4.77;;
16133;SDS011;8172;45.018;5.972;2022-08-06T22:38:09;6.07;;;4.60;;
16133;SDS011;8172;45.018;5.972;2022-08-06T22:43:20;5.00;;;4.50;;
16133;SDS011;8172;45.018;5.972;2022-08-06T22:48:31;6.70;;;4.67;;
16133;SDS011;8172;45.018;5.972;2022-08-06T22:53:42;5.70;;;5.13;;
16133;SDS011;8172;45.018;5.972;2022-08-06T22:58:53;6.37;;;4.83;;
16133;SDS011;8172;45.018;5.972;2022-08-06T23:04:04;5.70;;;5.20;;
16133;SDS011;8172;45.018;5.972;2022-08-06T23:09:16;6.33;;;4.77;;
16133;SDS011;8172;45.018;5.972;2022-08-06T23:14:26;6.70;;;4.80;;
16133;SDS011;8172;45.018;5.972;2022-08-06T23:19:37;5.60;;;4.93;;
16133;SDS011;8172;45.018;5.972;2022-08-06T23:24:50;7.37;;;4.60;;
16133;SDS011;8172;45.018;5.972;2022-08-06T23:30:01;5.50;;;4.73;;
16133;SDS011;8172;45.018;5.972;2022-08-06T23:35:12;5.47;;;4.97;;
16133;SDS011;8172;45.018;5.972;2022-08-06T23:40:22;5.60;;;4.97;;
16133;SDS011;8172;45.018;5.972;2022-08-06T23:45:34;6.37;;;4.47;;
16133;SDS011;8172;45.018;5.972;2022-08-06T23:50:47;5.40;;;4.87;;
16133;SDS011;8172;45.018;5.972;2022-08-06T23:55:59;7.97;;;5.00;;
